sensor_id;sensor_type;location;lat;lon;timestamp;temperature;humidity
44607;DHT22;30315;46.072;14.474;2023-12-14T00:01:59;7.80;94.70
44607;DHT22;30315;46.072;14.474;2023-12-14T00:04:46;7.80;94.60
44607;DHT22;30315;46.072;14.474;2023-12-14T00:07:17;7.80;94.60
44607;DHT22;30315;46.072;14.474;2023-12-14T00:09:46;7.80;94.20
44607;DHT22;30315;46.072;14.474;2023-12-14T00:12:15;7.80;94.30
44607;DHT22;30315;46.072;14.474;2023-12-14T00:14:58;7.80;94.40
44607;DHT22;30315;46.072;14.474;2023-12-14T00:17:26;7.80;94.60
44607;DHT22;30315;46.072;14.474;2023-12-14T00:19:55;7.80;94.40
44607;DHT22;30315;46.072;14.474;2023-12-14T00:22:25;7.80;94.40
44607;DHT22;30315;46.072;14.474;2023-12-14T00:25:06;7.80;94.30
44607;DHT22;30315;46.072;14.474;2023-12-14T00:27:37;7.80;94.50
44607;DHT22;30315;46.072;14.474;2023-12-14T00:30:27;7.80;94.70
44607;DHT22;30315;46.072;14.474;2023-12-14T00:32:57;7.80;94.80
44607;DHT22;30315;46.072;14.474;2023-12-14T00:35:25;7.80;94.80
44607;DHT22;30315;46.072;14.474;2023-12-14T00:38:07;7.90;94.80
44607;DHT22;30315;46.072;14.474;2023-12-14T00:41:04;7.90;94.80
44607;DHT22;30315;46.072;14.474;2023-12-14T00:43:53;7.80;94.80
44607;DHT22;30315;46.072;14.474;2023-12-14T00:46:24;7.90;94.90
44607;DHT22;30315;46.072;14.474;2023-12-14T00:48:53;7.90;95.00
44607;DHT22;30315;46.072;14.474;2023-12-14T00:51:21;7.90;94.90
44607;DHT22;30315;46.072;14.474;2023-12-14T00:53:50;7.90;94.70
44607;DHT22;30315;46.072;14.474;2023-12-14T00:56:21;7.90;94.70
44607;DHT22;30315;46.072;14.474;2023-12-14T00:58:51;7.90;94.60
44607;DHT22;30315;46.072;14.474;2023-12-14T01:01:20;7.90;94.50
44607;DHT22;30315;46.072;14.474;2023-12-14T01:03:48;8.20;94.50
44607;DHT22;30315;46.072;14.474;2023-12-14T01:06:16;7.90;94.40
44607;DHT22;30315;46.072;14.474;2023-12-14T01:08:44;7.90;94.40
44607;DHT22;30315;46.072;14.474;2023-12-14T01:11:11;7.90;94.40
44607;DHT22;30315;46.072;14.474;2023-12-14T01:13:41;7.90;94.50
44607;DHT22;30315;46.072;14.474;2023-12-14T01:16:11;7.90;94.50
44607;DHT22;30315;46.072;14.474;2023-12-14T01:18:40;8.00;94.60
44607;DHT22;30315;46.072;14.474;2023-12-14T01:21:08;7.90;94.50
44607;DHT22;30315;46.072;14.474;2023-12-14T01:23:39;7.90;94.60
44607;DHT22;30315;46.072;14.474;2023-12-14T01:26:07;8.00;94.40
44607;DHT22;30315;46.072;14.474;2023-12-14T01:28:40;7.90;94.30
44607;DHT22;30315;46.072;14.474;2023-12-14T01:31:22;8.00;94.40
44607;DHT22;30315;46.072;14.474;2023-12-14T01:37:44;8.00;94.60
44607;DHT22;30315;46.072;14.474;2023-12-14T01:40:12;7.90;94.50
44607;DHT22;30315;46.072;14.474;2023-12-14T01:42:40;7.90;94.50
44607;DHT22;30315;46.072;14.474;2023-12-14T01:45:09;7.90;94.50
44607;DHT22;30315;46.072;14.474;2023-12-14T01:47:37;8.00;94.40
44607;DHT22;30315;46.072;14.474;2023-12-14T01:50:07;8.00;94.30
44607;DHT22;30315;46.072;14.474;2023-12-14T01:52:37;8.00;94.30
44607;DHT22;30315;46.072;14.474;2023-12-14T01:55:10;7.90;94.30
44607;DHT22;30315;46.072;14.474;2023-12-14T01:57:37;7.90;94.40
44607;DHT22;30315;46.072;14.474;2023-12-14T02:00:06;7.80;94.40
44607;DHT22;30315;46.072;14.474;2023-12-14T02:02:36;7.90;94.60
44607;DHT22;30315;46.072;14.474;2023-12-14T02:05:19;7.90;94.60
44607;DHT22;30315;46.072;14.474;2023-12-14T02:07:50;7.90;94.60
44607;DHT22;30315;46.072;14.474;2023-12-14T02:10:23;7.90;94.60
44607;DHT22;30315;46.072;14.474;2023-12-14T02:12:51;7.90;94.60
44607;DHT22;30315;46.072;14.474;2023-12-14T02:15:28;7.90;94.60
44607;DHT22;30315;46.072;14.474;2023-12-14T02:18:01;7.90;94.60
44607;DHT22;30315;46.072;14.474;2023-12-14T02:20:31;7.90;94.60
44607;DHT22;30315;46.072;14.474;2023-12-14T02:23:08;7.90;94.60
44607;DHT22;30315;46.072;14.474;2023-12-14T02:29:28;7.90;94.80
44607;DHT22;30315;46.072;14.474;2023-12-14T02:35:36;7.90;95.00
44607;DHT22;30315;46.072;14.474;2023-12-14T02:38:11;7.90;95.00
44607;DHT22;30315;46.072;14.474;2023-12-14T02:41:13;7.90;95.00
44607;DHT22;30315;46.072;14.474;2023-12-14T02:44:00;7.90;95.00
44607;DHT22;30315;46.072;14.474;2023-12-14T02:47:58;7.90;95.00
44607;DHT22;30315;46.072;14.474;2023-12-14T02:52:05;7.80;95.00
44607;DHT22;30315;46.072;14.474;2023-12-14T02:55:21;7.80;95.00
44607;DHT22;30315;46.072;14.474;2023-12-14T02:58:56;7.80;95.00
44607;DHT22;30315;46.072;14.474;2023-12-14T03:02:37;7.80;95.10
44607;DHT22;30315;46.072;14.474;2023-12-14T03:05:27;7.80;95.10
44607;DHT22;30315;46.072;14.474;2023-12-14T03:08:07;7.70;95.10
44607;DHT22;30315;46.072;14.474;2023-12-14T03:10:53;7.80;95.10
44607;DHT22;30315;46.072;14.474;2023-12-14T03:13:52;7.80;94.90
44607;DHT22;30315;46.072;14.474;2023-12-14T03:16:30;7.70;94.70
44607;DHT22;30315;46.072;14.474;2023-12-14T03:19:22;7.80;94.70
44607;DHT22;30315;46.072;14.474;2023-12-14T03:22:10;7.80;94.70
44607;DHT22;30315;46.072;14.474;2023-12-14T03:25:40;7.70;94.40
44607;DHT22;30315;46.072;14.474;2023-12-14T03:32:33;7.80;94.50
44607;DHT22;30315;46.072;14.474;2023-12-14T03:39:28;7.70;94.40
44607;DHT22;30315;46.072;14.474;2023-12-14T03:42:05;7.70;94.40
44607;DHT22;30315;46.072;14.474;2023-12-14T03:48:33;7.70;94.50
44607;DHT22;30315;46.072;14.474;2023-12-14T03:51:33;7.70;94.70
44607;DHT22;30315;46.072;14.474;2023-12-14T03:54:26;7.70;95.00
44607;DHT22;30315;46.072;14.474;2023-12-14T03:57:07;7.60;95.10
44607;DHT22;30315;46.072;14.474;2023-12-14T03:59:50;7.70;95.10
44607;DHT22;30315;46.072;14.474;2023-12-14T04:02:20;7.60;95.10
44607;DHT22;30315;46.072;14.474;2023-12-14T04:05:08;7.70;95.30
44607;DHT22;30315;46.072;14.474;2023-12-14T04:07:55;7.70;95.30
44607;DHT22;30315;46.072;14.474;2023-12-14T04:10:23;7.70;95.20
44607;DHT22;30315;46.072;14.474;2023-12-14T04:13:22;7.70;95.20
44607;DHT22;30315;46.072;14.474;2023-12-14T04:16:05;7.80;95.20
44607;DHT22;30315;46.072;14.474;2023-12-14T04:18:45;7.80;95.10
44607;DHT22;30315;46.072;14.474;2023-12-14T04:21:28;7.80;95.20
44607;DHT22;30315;46.072;14.474;2023-12-14T04:23:58;7.80;95.20
44607;DHT22;30315;46.072;14.474;2023-12-14T04:26:38;7.80;95.10
44607;DHT22;30315;46.072;14.474;2023-12-14T04:30:24;7.80;95.10
44607;DHT22;30315;46.072;14.474;2023-12-14T04:33:06;7.80;95.10
44607;DHT22;30315;46.072;14.474;2023-12-14T04:35:50;7.80;94.90
44607;DHT22;30315;46.072;14.474;2023-12-14T04:38:22;7.80;94.90
44607;DHT22;30315;46.072;14.474;2023-12-14T04:41:05;7.80;94.90
44607;DHT22;30315;46.072;14.474;2023-12-14T04:43:34;7.80;94.80
44607;DHT22;30315;46.072;14.474;2023-12-14T04:46:15;7.80;94.80
44607;DHT22;30315;46.072;14.474;2023-12-14T04:48:45;7.80;94.90
44607;DHT22;30315;46.072;14.474;2023-12-14T04:51:22;7.80;95.00
44607;DHT22;30315;46.072;14.474;2023-12-14T04:54:10;7.80;95.00
44607;DHT22;30315;46.072;14.474;2023-12-14T04:56:57;7.90;95.00
44607;DHT22;30315;46.072;14.474;2023-12-14T04:59:34;7.90;94.90
44607;DHT22;30315;46.072;14.474;2023-12-14T05:02:23;7.90;94.80
44607;DHT22;30315;46.072;14.474;2023-12-14T05:04:59;7.90;94.70
44607;DHT22;30315;46.072;14.474;2023-12-14T05:07:52;7.90;94.80
44607;DHT22;30315;46.072;14.474;2023-12-14T05:10:39;7.80;94.80
44607;DHT22;30315;46.072;14.474;2023-12-14T05:13:39;7.90;94.90
44607;DHT22;30315;46.072;14.474;2023-12-14T05:16:18;7.80;95.00
44607;DHT22;30315;46.072;14.474;2023-12-14T05:19:10;7.90;95.10
44607;DHT22;30315;46.072;14.474;2023-12-14T05:21:57;7.90;95.10
44607;DHT22;30315;46.072;14.474;2023-12-14T05:24:35;7.80;95.10
44607;DHT22;30315;46.072;14.474;2023-12-14T05:27:11;7.80;95.20
44607;DHT22;30315;46.072;14.474;2023-12-14T05:29:51;7.90;95.30
44607;DHT22;30315;46.072;14.474;2023-12-14T05:33:03;7.90;95.30
44607;DHT22;30315;46.072;14.474;2023-12-14T05:36:00;7.80;95.30
44607;DHT22;30315;46.072;14.474;2023-12-14T05:38:55;7.80;95.30
44607;DHT22;30315;46.072;14.474;2023-12-14T05:42:03;7.80;95.40
44607;DHT22;30315;46.072;14.474;2023-12-14T05:44:54;7.80;95.40
44607;DHT22;30315;46.072;14.474;2023-12-14T05:47:52;7.80;95.40
44607;DHT22;30315;46.072;14.474;2023-12-14T05:50:40;7.70;95.40
44607;DHT22;30315;46.072;14.474;2023-12-14T05:53:29;7.80;95.50
44607;DHT22;30315;46.072;14.474;2023-12-14T05:56:01;7.80;95.50
44607;DHT22;30315;46.072;14.474;2023-12-14T05:58:33;7.80;95.50
44607;DHT22;30315;46.072;14.474;2023-12-14T06:02:28;7.80;95.40
44607;DHT22;30315;46.072;14.474;2023-12-14T06:09:03;7.80;95.40
44607;DHT22;30315;46.072;14.474;2023-12-14T06:12:09;7.80;95.20
44607;DHT22;30315;46.072;14.474;2023-12-14T06:15:41;7.70;95.20
44607;DHT22;30315;46.072;14.474;2023-12-14T06:18:12;7.80;95.40
44607;DHT22;30315;46.072;14.474;2023-12-14T06:20:41;7.80;95.40
44607;DHT22;30315;46.072;14.474;2023-12-14T06:23:10;7.80;95.40
44607;DHT22;30315;46.072;14.474;2023-12-14T06:25:59;7.40;95.10
44607;DHT22;30315;46.072;14.474;2023-12-14T06:28:50;7.80;95.20
44607;DHT22;30315;46.072;14.474;2023-12-14T06:31:35;7.80;95.10
44607;DHT22;30315;46.072;14.474;2023-12-14T06:34:07;7.80;95.20
44607;DHT22;30315;46.072;14.474;2023-12-14T06:37:00;7.90;95.20
44607;DHT22;30315;46.072;14.474;2023-12-14T06:39:44;7.90;95.00
44607;DHT22;30315;46.072;14.474;2023-12-14T06:42:16;7.90;95.00
44607;DHT22;30315;46.072;14.474;2023-12-14T06:44:46;7.90;94.70
44607;DHT22;30315;46.072;14.474;2023-12-14T06:47:25;7.80;94.60
44607;DHT22;30315;46.072;14.474;2023-12-14T06:49:53;7.80;94.50
44607;DHT22;30315;46.072;14.474;2023-12-14T06:52:29;7.80;94.50
44607;DHT22;30315;46.072;14.474;2023-12-14T06:54:57;7.80;94.60
44607;DHT22;30315;46.072;14.474;2023-12-14T06:57:25;7.80;94.70
44607;DHT22;30315;46.072;14.474;2023-12-14T06:59:54;7.90;95.10
44607;DHT22;30315;46.072;14.474;2023-12-14T07:02:21;8.00;95.40
44607;DHT22;30315;46.072;14.474;2023-12-14T07:05:22;8.00;95.10
44607;DHT22;30315;46.072;14.474;2023-12-14T09:12:13;8.30;94.80
44607;DHT22;30315;46.072;14.474;2023-12-14T09:15:24;8.40;94.60
44607;DHT22;30315;46.072;14.474;2023-12-14T09:18:01;8.10;94.50
44607;DHT22;30315;46.072;14.474;2023-12-14T09:20:32;8.50;94.50
44607;DHT22;30315;46.072;14.474;2023-12-14T09:23:02;8.60;94.30
44607;DHT22;30315;46.072;14.474;2023-12-14T09:25:30;8.60;94.00
44607;DHT22;30315;46.072;14.474;2023-12-14T09:29:01;8.60;93.80
44607;DHT22;30315;46.072;14.474;2023-12-14T09:31:30;8.60;93.50
44607;DHT22;30315;46.072;14.474;2023-12-14T09:33:58;8.60;93.20
44607;DHT22;30315;46.072;14.474;2023-12-14T09:36:30;8.60;93.20
44607;DHT22;30315;46.072;14.474;2023-12-14T09:39:11;8.60;93.30
44607;DHT22;30315;46.072;14.474;2023-12-14T09:41:46;8.60;93.20
44607;DHT22;30315;46.072;14.474;2023-12-14T09:45:00;8.60;93.30
44607;DHT22;30315;46.072;14.474;2023-12-14T09:47:28;8.60;93.50
44607;DHT22;30315;46.072;14.474;2023-12-14T09:49:56;8.60;93.50
44607;DHT22;30315;46.072;14.474;2023-12-14T09:52:24;8.60;93.40
44607;DHT22;30315;46.072;14.474;2023-12-14T09:54:51;8.70;93.50
44607;DHT22;30315;46.072;14.474;2023-12-14T09:57:22;8.70;93.50
44607;DHT22;30315;46.072;14.474;2023-12-14T10:00:07;8.80;93.50
44607;DHT22;30315;46.072;14.474;2023-12-14T10:02:38;8.80;93.40
44607;DHT22;30315;46.072;14.474;2023-12-14T10:05:09;8.70;93.10
44607;DHT22;30315;46.072;14.474;2023-12-14T10:07:43;8.70;93.00
44607;DHT22;30315;46.072;14.474;2023-12-14T10:10:13;8.70;93.20
44607;DHT22;30315;46.072;14.474;2023-12-14T10:12:54;8.70;93.30
44607;DHT22;30315;46.072;14.474;2023-12-14T10:15:47;8.80;93.40
44607;DHT22;30315;46.072;14.474;2023-12-14T10:22:03;8.80;93.20
44607;DHT22;30315;46.072;14.474;2023-12-14T10:24:35;8.90;93.10
44607;DHT22;30315;46.072;14.474;2023-12-14T10:27:06;8.90;93.10
44607;DHT22;30315;46.072;14.474;2023-12-14T10:30:05;8.90;93.20
44607;DHT22;30315;46.072;14.474;2023-12-14T10:32:43;8.90;92.80
44607;DHT22;30315;46.072;14.474;2023-12-14T10:35:16;8.80;92.60
44607;DHT22;30315;46.072;14.474;2023-12-14T10:37:44;8.90;92.60
44607;DHT22;30315;46.072;14.474;2023-12-14T10:40:32;8.80;92.60
44607;DHT22;30315;46.072;14.474;2023-12-14T10:44:02;8.60;92.60
44607;DHT22;30315;46.072;14.474;2023-12-14T10:46:48;8.90;92.80
44607;DHT22;30315;46.072;14.474;2023-12-14T10:50:17;8.80;92.80
44607;DHT22;30315;46.072;14.474;2023-12-14T10:56:29;8.90;92.90
44607;DHT22;30315;46.072;14.474;2023-12-14T11:00:17;9.00;93.00
44607;DHT22;30315;46.072;14.474;2023-12-14T11:03:07;9.00;93.10
44607;DHT22;30315;46.072;14.474;2023-12-14T11:09:27;9.10;93.00
44607;DHT22;30315;46.072;14.474;2023-12-14T11:12:34;9.20;92.60
44607;DHT22;30315;46.072;14.474;2023-12-14T11:15:21;9.20;92.40
44607;DHT22;30315;46.072;14.474;2023-12-14T11:18:28;9.10;92.50
44607;DHT22;30315;46.072;14.474;2023-12-14T11:21:00;9.20;92.60
44607;DHT22;30315;46.072;14.474;2023-12-14T11:23:40;9.10;92.50
44607;DHT22;30315;46.072;14.474;2023-12-14T11:30:05;9.10;92.50
44607;DHT22;30315;46.072;14.474;2023-12-14T11:32:50;9.20;92.20
44607;DHT22;30315;46.072;14.474;2023-12-14T11:35:24;9.10;92.10
44607;DHT22;30315;46.072;14.474;2023-12-14T11:52:53;9.10;92.30
44607;DHT22;30315;46.072;14.474;2023-12-14T11:58:55;9.10;92.40
44607;DHT22;30315;46.072;14.474;2023-12-14T12:08:40;9.10;91.90
44607;DHT22;30315;46.072;14.474;2023-12-14T12:11:10;9.10;92.00
44607;DHT22;30315;46.072;14.474;2023-12-14T12:13:39;9.00;92.20
44607;DHT22;30315;46.072;14.474;2023-12-14T12:16:22;9.10;92.40
44607;DHT22;30315;46.072;14.474;2023-12-14T12:30:02;9.10;91.80
44607;DHT22;30315;46.072;14.474;2023-12-14T12:32:45;9.10;91.90
44607;DHT22;30315;46.072;14.474;2023-12-14T12:35:19;9.10;91.80
44607;DHT22;30315;46.072;14.474;2023-12-14T12:38:41;9.10;91.80
44607;DHT22;30315;46.072;14.474;2023-12-14T12:41:21;9.10;91.60
44607;DHT22;30315;46.072;14.474;2023-12-14T12:44:06;9.10;91.40
44607;DHT22;30315;46.072;14.474;2023-12-14T12:47:21;9.10;91.50
44607;DHT22;30315;46.072;14.474;2023-12-14T12:49:49;9.00;91.60
44607;DHT22;30315;46.072;14.474;2023-12-14T12:52:42;9.10;91.80
44607;DHT22;30315;46.072;14.474;2023-12-14T12:55:17;9.20;91.90
44607;DHT22;30315;46.072;14.474;2023-12-14T12:58:01;9.20;91.80
44607;DHT22;30315;46.072;14.474;2023-12-14T13:00:34;9.10;91.60
44607;DHT22;30315;46.072;14.474;2023-12-14T13:03:07;9.20;91.60
44607;DHT22;30315;46.072;14.474;2023-12-14T13:05:35;9.10;91.40
44607;DHT22;30315;46.072;14.474;2023-12-14T13:08:04;9.10;91.40
44607;DHT22;30315;46.072;14.474;2023-12-14T13:10:31;9.20;91.60
44607;DHT22;30315;46.072;14.474;2023-12-14T13:13:02;9.20;91.50
44607;DHT22;30315;46.072;14.474;2023-12-14T13:15:34;9.30;91.70
44607;DHT22;30315;46.072;14.474;2023-12-14T13:18:07;9.30;91.80
44607;DHT22;30315;46.072;14.474;2023-12-14T13:20:43;9.30;91.60
44607;DHT22;30315;46.072;14.474;2023-12-14T13:23:13;9.30;91.30
44607;DHT22;30315;46.072;14.474;2023-12-14T13:25:45;9.10;91.10
44607;DHT22;30315;46.072;14.474;2023-12-14T13:28:44;9.30;90.90
44607;DHT22;30315;46.072;14.474;2023-12-14T13:31:15;9.20;91.00
44607;DHT22;30315;46.072;14.474;2023-12-14T13:33:46;9.20;91.20
44607;DHT22;30315;46.072;14.474;2023-12-14T13:36:15;9.20;91.10
44607;DHT22;30315;46.072;14.474;2023-12-14T13:38:47;9.20;91.20
44607;DHT22;30315;46.072;14.474;2023-12-14T13:41:20;9.10;91.20
44607;DHT22;30315;46.072;14.474;2023-12-14T13:44:03;9.20;91.20
44607;DHT22;30315;46.072;14.474;2023-12-14T13:46:36;9.20;91.30
44607;DHT22;30315;46.072;14.474;2023-12-14T13:49:12;9.20;91.20
44607;DHT22;30315;46.072;14.474;2023-12-14T13:51:44;9.20;91.30
44607;DHT22;30315;46.072;14.474;2023-12-14T13:54:12;9.20;91.40
44607;DHT22;30315;46.072;14.474;2023-12-14T13:56:43;9.20;91.40
44607;DHT22;30315;46.072;14.474;2023-12-14T13:59:15;9.20;91.40
44607;DHT22;30315;46.072;14.474;2023-12-14T14:01:44;9.20;91.50
44607;DHT22;30315;46.072;14.474;2023-12-14T14:04:25;9.40;91.70
44607;DHT22;30315;46.072;14.474;2023-12-14T14:06:53;9.20;91.50
44607;DHT22;30315;46.072;14.474;2023-12-14T14:09:21;9.20;91.60
44607;DHT22;30315;46.072;14.474;2023-12-14T14:11:50;9.20;91.60
44607;DHT22;30315;46.072;14.474;2023-12-14T14:14:18;9.10;91.70
44607;DHT22;30315;46.072;14.474;2023-12-14T14:16:49;9.20;91.90
44607;DHT22;30315;46.072;14.474;2023-12-14T14:19:16;9.20;92.00
44607;DHT22;30315;46.072;14.474;2023-12-14T14:21:49;9.20;92.00
44607;DHT22;30315;46.072;14.474;2023-12-14T14:24:17;9.20;92.20
44607;DHT22;30315;46.072;14.474;2023-12-14T14:26:48;9.10;92.10
44607;DHT22;30315;46.072;14.474;2023-12-14T14:29:16;9.10;92.00
44607;DHT22;30315;46.072;14.474;2023-12-14T14:31:46;9.20;92.50
44607;DHT22;30315;46.072;14.474;2023-12-14T14:34:14;9.20;92.70
44607;DHT22;30315;46.072;14.474;2023-12-14T14:36:45;9.50;92.50
44607;DHT22;30315;46.072;14.474;2023-12-14T14:39:25;9.20;92.30
44607;DHT22;30315;46.072;14.474;2023-12-14T14:41:58;9.20;92.20
44607;DHT22;30315;46.072;14.474;2023-12-14T14:44:27;9.20;92.20
44607;DHT22;30315;46.072;14.474;2023-12-14T14:47:43;9.10;92.00
44607;DHT22;30315;46.072;14.474;2023-12-14T14:50:09;9.10;92.10
44607;DHT22;30315;46.072;14.474;2023-12-14T14:52:39;9.00;92.00
44607;DHT22;30315;46.072;14.474;2023-12-14T14:55:08;9.00;92.00
44607;DHT22;30315;46.072;14.474;2023-12-14T14:57:46;9.00;92.00
44607;DHT22;30315;46.072;14.474;2023-12-14T15:00:17;8.90;92.00
44607;DHT22;30315;46.072;14.474;2023-12-14T15:02:53;8.90;92.20
44607;DHT22;30315;46.072;14.474;2023-12-14T15:05:31;8.90;92.30
44607;DHT22;30315;46.072;14.474;2023-12-14T15:07:59;8.90;92.40
44607;DHT22;30315;46.072;14.474;2023-12-14T15:10:34;8.80;92.40
44607;DHT22;30315;46.072;14.474;2023-12-14T15:13:02;8.80;92.40
44607;DHT22;30315;46.072;14.474;2023-12-14T15:15:29;8.80;92.50
44607;DHT22;30315;46.072;14.474;2023-12-14T15:17:57;8.80;92.60
44607;DHT22;30315;46.072;14.474;2023-12-14T15:20:27;8.80;92.60
44607;DHT22;30315;46.072;14.474;2023-12-14T15:22:54;8.80;92.80
44607;DHT22;30315;46.072;14.474;2023-12-14T15:25:33;8.80;92.70
44607;DHT22;30315;46.072;14.474;2023-12-14T15:28:07;8.80;93.10
44607;DHT22;30315;46.072;14.474;2023-12-14T15:34:30;8.80;92.90
44607;DHT22;30315;46.072;14.474;2023-12-14T15:37:17;8.80;93.00
44607;DHT22;30315;46.072;14.474;2023-12-14T15:39:46;8.70;93.00
44607;DHT22;30315;46.072;14.474;2023-12-14T15:42:17;8.70;93.00
44607;DHT22;30315;46.072;14.474;2023-12-14T15:44:51;8.70;93.20
44607;DHT22;30315;46.072;14.474;2023-12-14T15:47:19;8.70;93.30
44607;DHT22;30315;46.072;14.474;2023-12-14T15:49:48;8.70;93.30
44607;DHT22;30315;46.072;14.474;2023-12-14T15:52:16;8.70;93.40
44607;DHT22;30315;46.072;14.474;2023-12-14T15:57:47;8.70;93.50
44607;DHT22;30315;46.072;14.474;2023-12-14T16:00:46;8.70;93.70
44607;DHT22;30315;46.072;14.474;2023-12-14T16:03:27;8.80;93.70
44607;DHT22;30315;46.072;14.474;2023-12-14T16:06:09;8.80;93.60
44607;DHT22;30315;46.072;14.474;2023-12-14T16:09:50;8.90;93.60
44607;DHT22;30315;46.072;14.474;2023-12-14T16:13:21;8.40;93.30
44607;DHT22;30315;46.072;14.474;2023-12-14T16:15:58;8.80;93.40
44607;DHT22;30315;46.072;14.474;2023-12-14T16:18:31;8.80;93.40
44607;DHT22;30315;46.072;14.474;2023-12-14T16:20:58;8.70;93.50
44607;DHT22;30315;46.072;14.474;2023-12-14T16:23:27;8.70;93.60
44607;DHT22;30315;46.072;14.474;2023-12-14T16:26:13;8.70;93.60
44607;DHT22;30315;46.072;14.474;2023-12-14T16:28:53;8.70;93.70
44607;DHT22;30315;46.072;14.474;2023-12-14T16:31:23;8.80;93.70
44607;DHT22;30315;46.072;14.474;2023-12-14T16:33:50;8.80;93.70
44607;DHT22;30315;46.072;14.474;2023-12-14T16:36:18;8.80;93.60
44607;DHT22;30315;46.072;14.474;2023-12-14T16:38:49;8.80;93.50
44607;DHT22;30315;46.072;14.474;2023-12-14T16:41:20;8.80;93.40
44607;DHT22;30315;46.072;14.474;2023-12-14T16:44:13;8.70;93.10
44607;DHT22;30315;46.072;14.474;2023-12-14T16:50:19;8.60;93.40
44607;DHT22;30315;46.072;14.474;2023-12-14T16:53:33;8.70;93.50
44607;DHT22;30315;46.072;14.474;2023-12-14T17:03:52;8.30;93.20
44607;DHT22;30315;46.072;14.474;2023-12-14T17:06:23;8.50;93.30
44607;DHT22;30315;46.072;14.474;2023-12-14T17:09:12;8.50;93.30
44607;DHT22;30315;46.072;14.474;2023-12-14T17:15:02;8.20;93.20
44607;DHT22;30315;46.072;14.474;2023-12-14T17:32:41;8.50;93.90
44607;DHT22;30315;46.072;14.474;2023-12-14T17:38:39;8.40;93.70
44607;DHT22;30315;46.072;14.474;2023-12-14T17:41:12;8.40;93.80
44607;DHT22;30315;46.072;14.474;2023-12-14T17:51:05;8.30;93.60
44607;DHT22;30315;46.072;14.474;2023-12-14T17:53:49;8.30;93.60
44607;DHT22;30315;46.072;14.474;2023-12-14T17:56:29;8.10;93.70
44607;DHT22;30315;46.072;14.474;2023-12-14T18:41:12;8.00;94.00
44607;DHT22;30315;46.072;14.474;2023-12-14T18:43:40;8.20;94.00
44607;DHT22;30315;46.072;14.474;2023-12-14T18:46:15;8.10;94.20
44607;DHT22;30315;46.072;14.474;2023-12-14T18:48:46;8.10;93.90
44607;DHT22;30315;46.072;14.474;2023-12-14T18:51:15;8.10;93.80
44607;DHT22;30315;46.072;14.474;2023-12-14T18:53:44;8.10;93.80
44607;DHT22;30315;46.072;14.474;2023-12-14T18:56:14;8.10;93.90
44607;DHT22;30315;46.072;14.474;2023-12-14T18:58:42;8.10;93.90
44607;DHT22;30315;46.072;14.474;2023-12-14T19:01:15;8.10;93.90
44607;DHT22;30315;46.072;14.474;2023-12-14T19:03:44;8.20;94.00
44607;DHT22;30315;46.072;14.474;2023-12-14T19:06:13;8.20;94.00
44607;DHT22;30315;46.072;14.474;2023-12-14T19:15:34;8.20;94.00
44607;DHT22;30315;46.072;14.474;2023-12-14T19:23:01;8.20;94.00
44607;DHT22;30315;46.072;14.474;2023-12-14T19:30:24;8.10;94.00
44607;DHT22;30315;46.072;14.474;2023-12-14T19:35:59;8.10;94.10
44607;DHT22;30315;46.072;14.474;2023-12-14T19:42:41;8.10;94.10
44607;DHT22;30315;46.072;14.474;2023-12-14T19:45:10;8.20;94.00
44607;DHT22;30315;46.072;14.474;2023-12-14T19:48:23;8.10;93.80
44607;DHT22;30315;46.072;14.474;2023-12-14T19:50:53;8.20;93.80
44607;DHT22;30315;46.072;14.474;2023-12-14T19:56:12;8.10;93.30
44607;DHT22;30315;46.072;14.474;2023-12-14T19:58:53;8.10;93.40
44607;DHT22;30315;46.072;14.474;2023-12-14T20:05:32;7.90;93.70
44607;DHT22;30315;46.072;14.474;2023-12-14T20:18:59;8.00;93.70
44607;DHT22;30315;46.072;14.474;2023-12-14T20:21:41;8.00;93.80
44607;DHT22;30315;46.072;14.474;2023-12-14T20:53:37;7.90;94.50
44607;DHT22;30315;46.072;14.474;2023-12-14T20:56:08;7.90;94.60
44607;DHT22;30315;46.072;14.474;2023-12-14T21:02:53;7.90;94.60
44607;DHT22;30315;46.072;14.474;2023-12-14T21:09:58;7.90;94.70
44607;DHT22;30315;46.072;14.474;2023-12-14T21:13:01;7.90;94.50
44607;DHT22;30315;46.072;14.474;2023-12-14T21:15:45;7.90;94.50
44607;DHT22;30315;46.072;14.474;2023-12-14T21:18:30;7.90;94.30
44607;DHT22;30315;46.072;14.474;2023-12-14T21:20:58;7.90;94.30
44607;DHT22;30315;46.072;14.474;2023-12-14T21:23:29;7.80;94.30
44607;DHT22;30315;46.072;14.474;2023-12-14T21:25:56;7.90;94.50
44607;DHT22;30315;46.072;14.474;2023-12-14T21:28:40;7.80;94.30
44607;DHT22;30315;46.072;14.474;2023-12-14T21:31:09;7.90;94.20
44607;DHT22;30315;46.072;14.474;2023-12-14T21:33:38;7.80;94.20
44607;DHT22;30315;46.072;14.474;2023-12-14T21:36:06;7.80;94.10
44607;DHT22;30315;46.072;14.474;2023-12-14T21:38:38;7.80;94.10
44607;DHT22;30315;46.072;14.474;2023-12-14T21:41:06;7.50;93.80
44607;DHT22;30315;46.072;14.474;2023-12-14T21:43:38;7.70;94.10
44607;DHT22;30315;46.072;14.474;2023-12-14T21:46:06;7.70;94.30
44607;DHT22;30315;46.072;14.474;2023-12-14T21:48:33;7.70;94.30
44607;DHT22;30315;46.072;14.474;2023-12-14T21:51:01;7.80;94.40
44607;DHT22;30315;46.072;14.474;2023-12-14T21:53:29;7.70;94.10
44607;DHT22;30315;46.072;14.474;2023-12-14T21:55:58;7.70;94.00
44607;DHT22;30315;46.072;14.474;2023-12-14T21:58:27;7.70;94.10
44607;DHT22;30315;46.072;14.474;2023-12-14T22:00:56;7.60;94.00
44607;DHT22;30315;46.072;14.474;2023-12-14T22:03:29;7.60;94.20
44607;DHT22;30315;46.072;14.474;2023-12-14T22:05:59;7.20;94.30
44607;DHT22;30315;46.072;14.474;2023-12-14T22:08:27;7.60;94.60
44607;DHT22;30315;46.072;14.474;2023-12-14T22:11:02;7.70;94.70
44607;DHT22;30315;46.072;14.474;2023-12-14T22:13:31;7.70;94.60
44607;DHT22;30315;46.072;14.474;2023-12-14T22:15:58;7.70;94.60
44607;DHT22;30315;46.072;14.474;2023-12-14T22:18:30;7.60;94.50
44607;DHT22;30315;46.072;14.474;2023-12-14T22:21:02;7.60;94.50
44607;DHT22;30315;46.072;14.474;2023-12-14T22:34:45;7.60;94.40
44607;DHT22;30315;46.072;14.474;2023-12-14T22:37:13;7.50;94.30
44607;DHT22;30315;46.072;14.474;2023-12-14T22:39:43;7.60;94.40
44607;DHT22;30315;46.072;14.474;2023-12-14T22:42:19;7.50;94.40
44607;DHT22;30315;46.072;14.474;2023-12-14T22:44:53;7.50;94.40
44607;DHT22;30315;46.072;14.474;2023-12-14T22:47:24;7.60;94.10
44607;DHT22;30315;46.072;14.474;2023-12-14T22:49:58;7.50;93.90
44607;DHT22;30315;46.072;14.474;2023-12-14T22:52:53;7.50;94.00
44607;DHT22;30315;46.072;14.474;2023-12-14T22:55:23;7.50;94.10
44607;DHT22;30315;46.072;14.474;2023-12-14T22:57:56;7.50;94.10
44607;DHT22;30315;46.072;14.474;2023-12-14T23:00:27;7.40;94.10
44607;DHT22;30315;46.072;14.474;2023-12-14T23:03:04;7.40;93.90
44607;DHT22;30315;46.072;14.474;2023-12-14T23:06:25;7.40;93.70
44607;DHT22;30315;46.072;14.474;2023-12-14T23:12:49;7.40;93.50